Time;durP1;ratioP1;P1;durP2;ratioP2;P2;SDS_P1;SDS_P2;PMS_P1;PMS_P2;Temp;Humidity;BMP_temperature;BMP_pressure;BME280_temperature;BME280_humidity;BME280_pressure;Samples;Min_cycle;Max_cycle;Signal;HPM_P1;HPM_P2
2024/02/04 00:00:20;;;;;;;8.32;7.53;;;;;;;;;;1030211;28;20019;-75
2024/02/04 00:00:51;;;;;;;7.65;7.07;;;;;;;;;;1028694;28;20027;-75
2024/02/04 00:01:21;;;;;;;17.73;12.55;;;;;;;;;;1029720;28;20197;-74
2024/02/04 00:01:52;;;;;;;9.27;8.48;;;;;;;;;;1029928;28;20113;-74
2024/02/04 00:02:24;;;;;;;5.35;5.05;;;;;;;;;;1030575;28;20390;-74
2024/02/04 00:02:55;;;;;;;11.07;9.73;;;;;;;;;;1029856;28;20470;-75
2024/02/04 00:03:25;;;;;;;7.72;6.05;;;;;;;;;;1029872;28;20030;-74
2024/02/04 00:03:56;;;;;;;5.13;4.75;;;;;;;;;;1034065;28;20022;-74
2024/02/04 00:04:27;;;;;;;16.25;7.60;;;;;;;;;;1034055;28;20041;-74
2024/02/04 00:04:57;;;;;;;5.53;4.95;;;;;;;;;;1034456;28;20398;-74
2024/02/04 00:05:28;;;;;;;10.77;9.90;;;;;;;;;;1033817;28;20026;-75
2024/02/04 00:05:59;;;;;;;12.50;5.47;;;;;;;;;;1034348;28;20053;-75
2024/02/04 00:06:29;;;;;;;8.23;7.38;;;;;;;;;;1033886;28;20018;-74
2024/02/04 00:07:00;;;;;;;10.50;9.55;;;;;;;;;;1033773;28;20429;-74
2024/02/04 00:07:30;;;;;;;6.97;6.40;;;;;;;;;;1032022;28;20478;-75
2024/02/04 00:08:02;;;;;;;11.15;5.68;;;;;;;;;;1033801;28;20021;-74
2024/02/04 00:08:32;;;;;;;6.00;5.60;;;;;;;;;;1034178;28;20112;-74
2024/02/04 00:09:04;;;;;;;6.70;6.03;;;;;;;;;;1033815;28;20022;-74
2024/02/04 00:09:34;;;;;;;10.32;9.38;;;;;;;;;;1029572;28;20506;-74
2024/02/04 00:10:05;;;;;;;11.38;4.72;;;;;;;;;;1027463;28;20023;-74
2024/02/04 00:10:36;;;;;;;14.98;10.60;;;;;;;;;;1027855;28;20053;-74
2024/02/04 00:11:08;;;;;;;6.35;5.85;;;;;;;;;;1027837;28;20157;-74
2024/02/04 00:11:39;;;;;;;11.50;8.48;;;;;;;;;;1025959;28;20405;-74
2024/02/04 00:12:09;;;;;;;9.05;8.32;;;;;;;;;;1025875;28;20034;-74
2024/02/04 00:12:40;;;;;;;8.43;7.63;;;;;;;;;;1025321;28;20022;-75
2024/02/04 00:13:10;;;;;;;5.80;5.30;;;;;;;;;;1025858;28;20467;-74
2024/02/04 00:13:41;;;;;;;6.40;6.00;;;;;;;;;;1030156;28;20026;-74
2024/02/04 00:14:12;;;;;;;7.55;6.97;;;;;;;;;;1032998;28;20053;-73
2024/02/04 00:14:42;;;;;;;6.75;6.25;;;;;;;;;;1030063;28;20524;-74
2024/02/04 00:15:13;;;;;;;7.68;5.40;;;;;;;;;;1028727;28;20568;-73
2024/02/04 00:15:43;;;;;;;17.30;6.85;;;;;;;;;;1031129;28;20026;-75
2024/02/04 00:16:14;;;;;;;6.78;6.28;;;;;;;;;;1030583;28;20026;-74
2024/02/04 00:16:47;;;;;;;14.52;7.75;;;;;;;;;;1030038;28;20434;-74
2024/02/04 00:17:18;;;;;;;7.78;7.10;;;;;;;;;;1028654;28;20023;-74
2024/02/04 00:17:48;;;;;;;4.07;3.67;;;;;;;;;;1029847;28;20025;-75
2024/02/04 00:18:20;;;;;;;6.57;5.97;;;;;;;;;;1029726;28;20109;-76
2024/02/04 00:18:53;;;;;;;6.75;5.85;;;;;;;;;;1026404;28;20097;-76
2024/02/04 00:19:24;;;;;;;15.73;12.73;;;;;;;;;;1022936;28;20027;-76
2024/02/04 00:19:56;;;;;;;15.57;9.52;;;;;;;;;;1030474;28;20030;-75
2024/02/04 00:20:29;;;;;;;10.15;7.38;;;;;;;;;;1029646;28;20061;-75
2024/02/04 00:20:59;;;;;;;8.55;7.85;;;;;;;;;;1029409;28;20050;-74
2024/02/04 00:21:29;;;;;;;9.73;8.90;;;;;;;;;;1029837;28;20022;-74
2024/02/04 00:22:00;;;;;;;11.73;10.55;;;;;;;;;;1032992;28;20026;-74
2024/02/04 00:22:31;;;;;;;4.57;4.18;;;;;;;;;;1029100;28;20382;-75
2024/02/04 00:23:01;;;;;;;7.97;7.00;;;;;;;;;;1027797;28;20053;-74
2024/02/04 00:23:31;;;;;;;22.02;11.48;;;;;;;;;;1027684;28;20101;-74
2024/02/04 00:24:02;;;;;;;4.20;3.97;;;;;;;;;;1026735;28;20054;-74
2024/02/04 00:24:33;;;;;;;16.75;7.22;;;;;;;;;;1025609;28;20034;-74
2024/02/04 00:25:06;;;;;;;19.67;6.00;;;;;;;;;;1026671;28;20031;-74
2024/02/04 00:25:37;;;;;;;8.48;6.45;;;;;;;;;;1025944;28;20031;-74
2024/02/04 00:26:07;;;;;;;7.50;5.53;;;;;;;;;;1030866;28;20051;-73
2024/02/04 00:26:37;;;;;;;9.15;7.38;;;;;;;;;;1034787;28;20089;-74
2024/02/04 00:27:08;;;;;;;12.65;10.68;;;;;;;;;;1035910;28;20014;-74
2024/02/04 00:27:39;;;;;;;7.07;6.55;;;;;;;;;;1031552;28;20026;-74
2024/02/04 00:28:12;;;;;;;12.38;6.22;;;;;;;;;;1032808;28;20030;-74
2024/02/04 00:28:43;;;;;;;8.05;7.28;;;;;;;;;;1033201;28;20037;-74
2024/02/04 00:29:13;;;;;;;5.30;4.95;;;;;;;;;;1033658;28;20033;-74
2024/02/04 00:29:44;;;;;;;6.28;5.80;;;;;;;;;;1033931;28;20477;-74
2024/02/04 00:30:14;;;;;;;6.47;5.82;;;;;;;;;;1034179;28;20022;-74
2024/02/04 00:30:44;;;;;;;7.57;6.90;;;;;;;;;;1034360;28;20044;-74
2024/02/04 00:31:15;;;;;;;8.10;6.38;;;;;;;;;;1034607;28;20025;-74
2024/02/04 00:31:45;;;;;;;11.68;9.90;;;;;;;;;;1036328;28;20033;-75
2024/02/04 00:32:16;;;;;;;9.65;8.68;;;;;;;;;;1034766;28;20025;-74
2024/02/04 00:32:46;;;;;;;39.45;15.00;;;;;;;;;;1033881;28;20030;-74
2024/02/04 00:33:17;;;;;;;13.77;7.40;;;;;;;;;;1032576;28;20050;-75
2024/02/04 00:33:47;;;;;;;8.50;5.45;;;;;;;;;;1034151;28;20072;-74
2024/02/04 00:34:17;;;;;;;7.72;6.93;;;;;;;;;;1036498;28;20024;-74
2024/02/04 00:34:48;;;;;;;11.57;6.18;;;;;;;;;;1035958;28;20023;-74
2024/02/04 00:35:18;;;;;;;31.52;9.30;;;;;;;;;;1034577;28;20088;-74
2024/02/04 00:35:49;;;;;;;12.35;9.85;;;;;;;;;;1036362;28;20033;-74
2024/02/04 00:36:21;;;;;;;7.93;7.18;;;;;;;;;;1035067;28;20048;-74
2024/02/04 00:36:51;;;;;;;8.30;6.55;;;;;;;;;;1033320;28;20417;-74
2024/02/04 00:37:22;;;;;;;8.75;5.55;;;;;;;;;;1028501;28;20113;-74
2024/02/04 00:37:52;;;;;;;16.83;7.57;;;;;;;;;;1029834;28;20030;-74
2024/02/04 00:38:23;;;;;;;19.17;9.35;;;;;;;;;;1029846;28;20134;-74
2024/02/04 00:38:53;;;;;;;10.57;7.63;;;;;;;;;;1027566;28;20023;-74
2024/02/04 00:39:23;;;;;;;8.18;7.53;;;;;;;;;;1029572;28;20386;-74
2024/02/04 00:39:54;;;;;;;6.60;6.00;;;;;;;;;;1031363;28;20037;-74
2024/02/04 00:40:26;;;;;;;7.88;5.80;;;;;;;;;;1030183;28;20031;-74
2024/02/04 00:40:56;;;;;;;12.73;8.75;;;;;;;;;;1029878;28;20037;-74
2024/02/04 00:41:27;;;;;;;21.05;11.82;;;;;;;;;;1029578;28;20052;-74
2024/02/04 00:41:57;;;;;;;8.27;7.43;;;;;;;;;;1034190;28;20061;-74
2024/02/04 00:42:28;;;;;;;11.77;6.45;;;;;;;;;;1034071;28;20053;-74
2024/02/04 00:42:58;;;;;;;5.50;5.00;;;;;;;;;;1033952;28;20087;-74
2024/02/04 00:43:29;;;;;;;10.90;9.02;;;;;;;;;;1029625;28;20023;-74
2024/02/04 00:43:59;;;;;;;12.77;11.40;;;;;;;;;;1029745;28;20034;-74
2024/02/04 00:44:30;;;;;;;9.65;7.55;;;;;;;;;;1029173;28;20030;-74
2024/02/04 00:45:00;;;;;;;9.18;6.57;;;;;;;;;;1031886;28;20101;-74
2024/02/04 00:45:31;;;;;;;6.43;5.95;;;;;;;;;;1029588;28;20023;-74
2024/02/04 00:46:02;;;;;;;4.13;3.35;;;;;;;;;;1030797;28;20026;-74
2024/02/04 00:46:33;;;;;;;17.90;13.02;;;;;;;;;;1030686;28;20514;-74
2024/02/04 00:47:03;;;;;;;4.00;3.70;;;;;;;;;;1029593;28;20027;-74
2024/02/04 00:47:34;;;;;;;7.35;6.70;;;;;;;;;;1029742;28;20026;-74
2024/02/04 00:48:04;;;;;;;8.73;7.72;;;;;;;;;;1030831;28;20082;-74
2024/02/04 00:48:35;;;;;;;7.65;7.05;;;;;;;;;;1034537;28;20513;-73
2024/02/04 00:49:05;;;;;;;7.82;5.57;;;;;;;;;;1035381;28;20038;-74
2024/02/04 00:49:36;;;;;;;4.57;4.28;;;;;;;;;;1036149;28;20026;-74
2024/02/04 00:50:06;;;;;;;12.48;6.45;;;;;;;;;;1035792;28;20023;-74
2024/02/04 00:50:37;;;;;;;10.05;8.02;;;;;;;;;;1035543;28;20041;-74
2024/02/04 00:51:07;;;;;;;10.70;7.57;;;;;;;;;;1033509;28;20482;-74
2024/02/04 00:51:38;;;;;;;14.27;9.13;;;;;;;;;;1033725;28;20477;-74
2024/02/04 00:52:08;;;;;;;9.30;6.53;;;;;;;;;;1033633;28;20044;-74
2024/02/04 00:52:39;;;;;;;20.95;7.60;;;;;;;;;;1032851;28;20122;-74
2024/02/04 00:53:09;;;;;;;18.13;9.35;;;;;;;;;;1029808;28;20023;-73
2024/02/04 00:53:39;;;;;;;14.00;10.05;;;;;;;;;;1029669;28;20162;-74
2024/02/04 00:54:10;;;;;;;10.20;9.18;;;;;;;;;;1029514;28;20382;-74
2024/02/04 00:54:40;;;;;;;26.75;9.70;;;;;;;;;;1029460;28;20410;-74
2024/02/04 00:55:11;;;;;;;9.57;8.13;;;;;;;;;;1029615;28;20030;-74
2024/02/04 00:55:41;;;;;;;19.38;11.40;;;;;;;;;;1029536;28;20045;-74
2024/02/04 00:56:12;;;;;;;15.02;7.95;;;;;;;;;;1029683;28;20026;-74
2024/02/04 00:56:42;;;;;;;13.27;9.55;;;;;;;;;;1034009;28;20176;-74
2024/02/04 00:57:13;;;;;;;26.00;13.48;;;;;;;;;;1035102;28;20581;-74
2024/02/04 00:57:43;;;;;;;14.60;11.65;;;;;;;;;;1034012;28;20034;-74
2024/02/04 00:58:13;;;;;;;8.85;8.13;;;;;;;;;;1034068;28;20120;-74
2024/02/04 00:58:44;;;;;;;17.80;10.48;;;;;;;;;;1033833;28;20030;-74
2024/02/04 00:59:15;;;;;;;12.25;7.30;;;;;;;;;;1029411;28;20023;-74
2024/02/04 00:59:45;;;;;;;5.90;5.35;;;;;;;;;;1029473;28;20094;-74
2024/02/04 01:00:16;;;;;;;14.38;11.70;;;;;;;;;;1029209;28;20027;-74
2024/02/04 01:00:46;;;;;;;27.00;12.13;;;;;;;;;;1029475;28;20117;-74
2024/02/04 01:01:17;;;;;;;10.75;8.75;;;;;;;;;;1029417;28;20023;-74
2024/02/04 01:01:47;;;;;;;11.95;8.20;;;;;;;;;;1028372;28;20633;-74
2024/02/04 01:02:18;;;;;;;12.52;10.55;;;;;;;;;;1030863;28;20888;-74
2024/02/04 01:02:48;;;;;;;9.48;8.55;;;;;;;;;;1029255;28;20081;-74
2024/02/04 01:03:19;;;;;;;10.70;8.73;;;;;;;;;;1025502;28;20050;-74
2024/02/04 01:03:49;;;;;;;10.68;6.43;;;;;;;;;;1025492;28;20018;-74
2024/02/04 01:04:20;;;;;;;16.75;10.13;;;;;;;;;;1025592;28;20023;-74
2024/02/04 01:04:51;;;;;;;20.77;10.45;;;;;;;;;;1025376;28;20052;-74
2024/02/04 01:05:21;;;;;;;37.00;14.25;;;;;;;;;;1029461;28;20041;-74
2024/02/04 01:05:52;;;;;;;10.93;10.10;;;;;;;;;;1030186;28;20074;-74
2024/02/04 01:06:22;;;;;;;14.60;12.32;;;;;;;;;;1029969;28;20133;-75
2024/02/04 01:06:53;;;;;;;16.50;9.13;;;;;;;;;;1029205;28;20046;-74
2024/02/04 01:07:23;;;;;;;15.40;9.05;;;;;;;;;;1028693;28;20093;-74
2024/02/04 01:07:54;;;;;;;9.52;6.90;;;;;;;;;;1032671;28;20022;-74
2024/02/04 01:08:24;;;;;;;8.88;6.40;;;;;;;;;;1033586;28;20026;-74
2024/02/04 01:08:56;;;;;;;8.70;6.85;;;;;;;;;;1029213;28;20115;-74
2024/02/04 01:09:27;;;;;;;14.10;10.05;;;;;;;;;;1029975;28;20030;-74
2024/02/04 01:09:57;;;;;;;9.95;9.02;;;;;;;;;;1029551;28;20026;-74
2024/02/04 01:10:28;;;;;;;6.82;5.88;;;;;;;;;;1029591;28;20026;-74
2024/02/04 01:10:58;;;;;;;11.35;7.88;;;;;;;;;;1029528;28;20390;-74
2024/02/04 01:11:29;;;;;;;11.90;8.38;;;;;;;;;;1029539;28;20066;-74
2024/02/04 01:11:59;;;;;;;11.35;7.60;;;;;;;;;;1029626;28;20027;-74
2024/02/04 01:12:30;;;;;;;15.98;8.50;;;;;;;;;;1030578;28;20437;-74
2024/02/04 01:13:00;;;;;;;11.73;10.23;;;;;;;;;;1029595;28;20474;-74
2024/02/04 01:13:31;;;;;;;12.98;7.10;;;;;;;;;;1029453;28;20575;-74
2024/02/04 01:14:01;;;;;;;10.60;8.02;;;;;;;;;;1029377;28;20084;-74
2024/02/04 01:14:32;;;;;;;11.70;6.72;;;;;;;;;;1029526;28;20029;-74
2024/02/04 01:15:05;;;;;;;7.63;4.95;;;;;;;;;;1028826;28;20022;-74
2024/02/04 01:15:35;;;;;;;23.83;11.68;;;;;;;;;;1029392;28;20023;-74
2024/02/04 01:16:06;;;;;;;27.88;13.35;;;;;;;;;;1030081;28;20026;-74
2024/02/04 01:16:36;;;;;;;9.35;8.05;;;;;;;;;;1029011;28;20029;-74
2024/02/04 01:17:07;;;;;;;25.65;10.35;;;;;;;;;;1029260;28;20117;-74
2024/02/04 01:17:38;;;;;;;28.63;10.32;;;;;;;;;;1029176;28;20030;-74
2024/02/04 01:18:08;;;;;;;9.55;8.57;;;;;;;;;;1027651;28;20470;-74
2024/02/04 01:18:39;;;;;;;15.75;13.35;;;;;;;;;;1027607;28;20166;-74
2024/02/04 01:19:09;;;;;;;7.93;6.63;;;;;;;;;;1027581;28;20022;-74
2024/02/04 01:19:40;;;;;;;16.45;8.45;;;;;;;;;;1029999;28;20022;-73
2024/02/04 01:20:10;;;;;;;17.73;15.65;;;;;;;;;;1033493;28;20019;-74
2024/02/04 01:20:41;;;;;;;12.65;6.13;;;;;;;;;;1029301;28;20031;-74
2024/02/04 01:21:11;;;;;;;6.03;5.35;;;;;;;;;;1027784;28;20546;-74
2024/02/04 01:21:44;;;;;;;15.98;9.82;;;;;;;;;;1029223;28;20421;-74
2024/02/04 01:22:14;;;;;;;34.00;10.65;;;;;;;;;;1029605;28;20047;-74
2024/02/04 01:22:44;;;;;;;9.35;8.50;;;;;;;;;;1024935;28;20501;-74
2024/02/04 01:23:17;;;;;;;14.30;7.78;;;;;;;;;;1024673;28;20062;-74
2024/02/04 01:23:47;;;;;;;10.85;9.85;;;;;;;;;;1025643;28;20029;-74
2024/02/04 01:24:18;;;;;;;10.82;9.27;;;;;;;;;;1029539;28;20510;-74
2024/02/04 01:24:49;;;;;;;8.18;7.53;;;;;;;;;;1030496;28;20037;-74
2024/02/04 01:25:20;;;;;;;9.52;8.70;;;;;;;;;;1025196;28;20498;-74
2024/02/04 01:25:50;;;;;;;12.73;8.52;;;;;;;;;;1025522;28;20495;-74
2024/02/04 01:26:23;;;;;;;9.18;5.57;;;;;;;;;;1023588;29;20019;-74
2024/02/04 01:26:53;;;;;;;4.78;4.47;;;;;;;;;;1023751;28;20023;-75
2024/02/04 01:27:24;;;;;;;7.32;5.40;;;;;;;;;;1023695;28;20479;-75
2024/02/04 01:27:54;;;;;;;16.95;7.13;;;;;;;;;;1023552;29;20035;-75
2024/02/04 01:28:25;;;;;;;5.40;4.88;;;;;;;;;;1023501;28;20038;-74
2024/02/04 01:28:55;;;;;;;6.20;5.75;;;;;;;;;;1027315;28;20027;-74
2024/02/04 01:29:25;;;;;;;7.80;7.13;;;;;;;;;;1028556;28;20106;-75
2024/02/04 01:29:56;;;;;;;14.38;9.55;;;;;;;;;;1029705;28;20027;-74
2024/02/04 01:30:30;;;;;;;11.02;7.25;;;;;;;;;;1030142;28;20022;-75
2024/02/04 01:31:00;;;;;;;5.47;4.43;;;;;;;;;;1028011;28;20022;-74
2024/02/04 01:31:31;;;;;;;11.75;7.72;;;;;;;;;;1029426;28;20023;-74
2024/02/04 01:32:01;;;;;;;8.73;7.97;;;;;;;;;;1029520;28;20537;-75
2024/02/04 01:32:33;;;;;;;15.20;9.55;;;;;;;;;;1027611;28;20413;-76
2024/02/04 01:33:05;;;;;;;13.55;9.48;;;;;;;;;;1033701;28;20030;-75
2024/02/04 01:33:36;;;;;;;8.35;5.28;;;;;;;;;;1033638;28;20018;-74
2024/02/04 01:34:06;;;;;;;13.80;9.70;;;;;;;;;;1034047;28;20055;-74
2024/02/04 01:34:37;;;;;;;9.27;7.75;;;;;;;;;;1034031;28;20022;-75
2024/02/04 01:35:07;;;;;;;10.10;7.03;;;;;;;;;;1030003;28;20026;-74
2024/02/04 01:35:38;;;;;;;16.60;4.70;;;;;;;;;;1029758;28;20129;-74
2024/02/04 01:36:08;;;;;;;6.88;6.22;;;;;;;;;;1029577;28;20026;-75
2024/02/04 01:36:39;;;;;;;5.70;5.35;;;;;;;;;;1028683;28;20019;-74
2024/02/04 01:37:09;;;;;;;5.35;5.05;;;;;;;;;;1034850;28;20025;-75
2024/02/04 01:37:40;;;;;;;11.52;4.43;;;;;;;;;;1028250;28;20040;-74
2024/02/04 01:38:10;;;;;;;12.63;10.20;;;;;;;;;;1030352;28;20482;-75
2024/02/04 01:38:41;;;;;;;14.38;8.82;;;;;;;;;;1030824;28;20019;-75
2024/02/04 01:39:11;;;;;;;17.27;8.98;;;;;;;;;;1029364;28;20410;-75
2024/02/04 01:39:42;;;;;;;7.95;7.22;;;;;;;;;;1030021;28;20022;-75
2024/02/04 01:40:13;;;;;;;8.57;5.03;;;;;;;;;;1028839;28;20457;-74
2024/02/04 01:40:46;;;;;;;9.32;8.57;;;;;;;;;;1029682;28;20422;-75
2024/02/04 01:41:16;;;;;;;8.82;8.05;;;;;;;;;;1033751;28;20022;-74
2024/02/04 01:41:47;;;;;;;13.10;7.55;;;;;;;;;;1033830;28;20062;-74
2024/02/04 01:42:17;;;;;;;8.20;6.82;;;;;;;;;;1033715;28;20022;-74
2024/02/04 01:42:48;;;;;;;13.30;8.75;;;;;;;;;;1033774;28;20030;-74
2024/02/04 01:43:20;;;;;;;4.03;3.70;;;;;;;;;;1033681;28;20026;-75
2024/02/04 01:43:51;;;;;;;5.20;4.68;;;;;;;;;;1033647;28;20038;-74
2024/02/04 01:44:22;;;;;;;19.23;11.38;;;;;;;;;;1033402;28;20026;-74
2024/02/04 01:44:52;;;;;;;8.77;5.10;;;;;;;;;;1034027;28;20026;-74
2024/02/04 01:45:24;;;;;;;7.40;6.72;;;;;;;;;;1034797;28;20428;-75
2024/02/04 01:45:55;;;;;;;7.43;5.70;;;;;;;;;;1034879;28;20076;-74
2024/02/04 01:46:26;;;;;;;7.10;6.60;;;;;;;;;;1034282;28;20021;-74
2024/02/04 01:46:57;;;;;;;24.20;6.13;;;;;;;;;;1035084;28;20030;-75
2024/02/04 01:47:27;;;;;;;5.30;4.93;;;;;;;;;;1028681;28;20033;-74
2024/02/04 01:47:58;;;;;;;15.43;4.18;;;;;;;;;;1029574;28;20026;-75
2024/02/04 01:48:29;;;;;;;14.02;9.85;;;;;;;;;;1029451;28;20030;-74
2024/02/04 01:48:59;;;;;;;8.95;8.25;;;;;;;;;;1029697;28;20022;-75
2024/02/04 01:49:30;;;;;;;8.23;7.50;;;;;;;;;;1033723;28;20026;-74
2024/02/04 01:50:02;;;;;;;7.53;5.55;;;;;;;;;;1029271;28;20015;-75
2024/02/04 01:50:32;;;;;;;6.03;5.43;;;;;;;;;;1028083;28;20161;-74
2024/02/04 01:51:03;;;;;;;7.97;7.30;;;;;;;;;;1028704;28;20030;-74
2024/02/04 01:51:34;;;;;;;7.63;6.93;;;;;;;;;;1029633;28;20524;-74
2024/02/04 01:52:05;;;;;;;9.95;8.73;;;;;;;;;;1033483;28;20124;-75
2024/02/04 01:52:37;;;;;;;4.93;4.53;;;;;;;;;;1032843;28;20029;-74
2024/02/04 01:53:08;;;;;;;16.13;9.43;;;;;;;;;;1025352;28;20033;-74
2024/02/04 01:53:40;;;;;;;13.70;6.40;;;;;;;;;;1026404;28;20093;-75
2024/02/04 01:54:10;;;;;;;5.63;5.22;;;;;;;;;;1023929;28;20137;-74
2024/02/04 01:54:42;;;;;;;12.77;8.48;;;;;;;;;;1025648;28;20029;-74
2024/02/04 01:55:12;;;;;;;16.70;8.85;;;;;;;;;;1033737;28;20030;-74
2024/02/04 01:55:43;;;;;;;7.30;5.75;;;;;;;;;;1029351;28;20022;-74
2024/02/04 01:56:13;;;;;;;9.25;7.70;;;;;;;;;;1029282;28;20085;-74
2024/02/04 01:56:46;;;;;;;6.45;3.83;;;;;;;;;;1029520;28;20026;-74
2024/02/04 01:57:17;;;;;;;8.25;7.45;;;;;;;;;;1029235;28;20022;-74
2024/02/04 01:57:48;;;;;;;6.82;6.18;;;;;;;;;;1029423;28;20509;-75
2024/02/04 01:58:19;;;;;;;6.13;4.75;;;;;;;;;;1029493;28;20092;-74
2024/02/04 01:58:49;;;;;;;20.48;7.93;;;;;;;;;;1030253;28;20049;-75
2024/02/04 01:59:20;;;;;;;20.33;8.07;;;;;;;;;;1029191;28;20025;-75
2024/02/04 01:59:53;;;;;;;11.30;9.88;;;;;;;;;;1027890;28;20027;-74
2024/02/04 02:00:24;;;;;;;12.95;5.13;;;;;;;;;;1028095;28;20057;-74
2024/02/04 02:00:54;;;;;;;9.52;5.97;;;;;;;;;;1029351;28;20026;-74
2024/02/04 02:01:25;;;;;;;9.73;6.15;;;;;;;;;;1029434;28;20066;-75
2024/02/04 02:01:55;;;;;;;12.20;6.05;;;;;;;;;;1029547;28;20022;-74
2024/02/04 02:02:26;;;;;;;7.70;6.93;;;;;;;;;;1029343;28;20033;-74
2024/02/04 02:02:58;;;;;;;4.13;3.75;;;;;;;;;;1029253;28;20034;-74
2024/02/04 02:03:30;;;;;;;9.23;6.78;;;;;;;;;;1029282;28;20125;-74
2024/02/04 02:04:02;;;;;;;8.60;6.68;;;;;;;;;;1029297;28;20022;-74
2024/02/04 02:04:33;;;;;;;7.80;5.65;;;;;;;;;;1028774;28;20105;-74
2024/02/04 02:05:03;;;;;;;6.32;5.80;;;;;;;;;;1029832;28;20455;-74
2024/02/04 02:05:34;;;;;;;11.52;9.40;;;;;;;;;;1029170;28;20022;-74
2024/02/04 02:06:05;;;;;;;7.20;5.82;;;;;;;;;;1029495;28;20027;-74
2024/02/04 02:06:41;;;;;;;3.67;3.33;;;;;;;;;;1029219;28;20466;-74
2024/02/04 02:07:13;;;;;;;5.13;3.67;;;;;;;;;;1027333;28;20937;-74
2024/02/04 02:07:45;;;;;;;10.63;9.75;;;;;;;;;;1027415;28;20048;-74
2024/02/04 02:08:16;;;;;;;6.13;5.63;;;;;;;;;;1029327;28;20073;-74
2024/02/04 02:08:47;;;;;;;8.13;7.40;;;;;;;;;;1029111;28;20679;-74
2024/02/04 02:09:18;;;;;;;6.15;5.47;;;;;;;;;;1028662;28;20023;-74
2024/02/04 02:09:48;;;;;;;9.40;7.75;;;;;;;;;;1030284;28;20030;-74
2024/02/04 02:10:19;;;;;;;24.77;6.70;;;;;;;;;;1029628;28;20494;-74
2024/02/04 02:10:51;;;;;;;6.70;6.10;;;;;;;;;;1025128;28;20091;-74
2024/02/04 02:11:26;;;;;;;7.07;6.47;;;;;;;;;;1025281;28;20491;-74
2024/02/04 02:12:01;;;;;;;5.65;3.65;;;;;;;;;;1025621;28;20027;-74
2024/02/04 02:12:38;;;;;;;12.05;7.32;;;;;;;;;;1031033;28;20026;-74
2024/02/04 02:13:15;;;;;;;6.65;6.15;;;;;;;;;;1033656;28;20026;-74
2024/02/04 02:13:50;;;;;;;8.60;7.80;;;;;;;;;;1033596;28;20018;-74
2024/02/04 02:14:24;;;;;;;8.65;7.82;;;;;;;;;;1033097;28;20489;-74
2024/02/04 02:14:59;;;;;;;6.95;6.43;;;;;;;;;;1033612;28;20044;-74
2024/02/04 02:15:36;;;;;;;9.63;6.80;;;;;;;;;;1027298;28;20398;-74
2024/02/04 02:16:13;;;;;;;11.38;8.45;;;;;;;;;;1029326;28;20026;-74
2024/02/04 02:16:45;;;;;;;7.20;6.45;;;;;;;;;;1024743;28;20027;-74
2024/02/04 02:17:20;;;;;;;12.00;7.85;;;;;;;;;;1025268;28;20090;-74
2024/02/04 02:17:50;;;;;;;10.30;9.40;;;;;;;;;;1020562;29;20082;-74
2024/02/04 02:18:21;;;;;;;5.45;4.97;;;;;;;;;;1021760;29;20488;-74
2024/02/04 02:18:58;;;;;;;14.95;8.52;;;;;;;;;;1026381;28;20037;-74
2024/02/04 02:19:52;;;;;;;17.70;8.50;;;;;;;;;;1030041;28;20386;-74
2024/02/04 02:20:42;;;;;;;7.40;6.72;;;;;;;;;;1025895;28;20067;-74
2024/02/04 02:21:13;;;;;;;12.65;5.80;;;;;;;;;;1031815;28;20509;-75
2024/02/04 02:22:02;;;;;;;10.15;6.60;;;;;;;;;;1034516;28;20080;-74
2024/02/04 02:22:39;;;;;;;7.47;5.47;;;;;;;;;;1028422;28;20022;-74
2024/02/04 02:23:12;;;;;;;12.55;9.25;;;;;;;;;;1029360;28;20015;-74
2024/02/04 02:23:52;;;;;;;23.75;7.47;;;;;;;;;;1026580;28;20126;-74
2024/02/04 02:24:22;;;;;;;;;;;;;;;;;;1026090;28;20035;-73
2024/02/04 02:24:55;;;;;;;4.70;4.40;;;;;;;;;;1026952;28;20016;-73
2024/02/04 02:25:26;;;;;;;11.05;7.75;;;;;;;;;;1026168;28;20026;-73
2024/02/04 02:25:58;;;;;;;7.45;6.18;;;;;;;;;;1029950;28;20565;-73
2024/02/04 02:26:28;;;;;;;18.90;11.02;;;;;;;;;;1033580;28;20045;-74
2024/02/04 02:26:59;;;;;;;33.47;10.95;;;;;;;;;;1029534;28;20538;-74
2024/02/04 02:27:29;;;;;;;5.40;4.90;;;;;;;;;;1030245;28;20018;-73
2024/02/04 02:27:59;;;;;;;15.57;7.82;;;;;;;;;;1029321;28;20139;-74
2024/02/04 02:28:30;;;;;;;3.95;3.50;;;;;;;;;;1029324;28;20050;-74
2024/02/04 02:29:00;;;;;;;23.30;10.65;;;;;;;;;;1029171;28;20041;-73
2024/02/04 02:29:32;;;;;;;7.55;4.68;;;;;;;;;;1028815;28;20030;-73
2024/02/04 02:30:02;;;;;;;25.00;9.45;;;;;;;;;;1028638;28;20398;-73
2024/02/04 02:30:33;;;;;;;17.30;9.30;;;;;;;;;;1030339;28;20105;-73
2024/02/04 02:31:03;;;;;;;14.82;5.63;;;;;;;;;;1025355;28;20559;-73
2024/02/04 02:31:43;;;;;;;22.45;11.45;;;;;;;;;;1029372;28;20367;-74
2024/02/04 02:32:13;;;;;;;7.40;6.80;;;;;;;;;;1029534;28;20038;-74
2024/02/04 02:32:44;;;;;;;24.20;12.75;;;;;;;;;;1026531;28;20027;-74
2024/02/04 02:33:15;;;;;;;15.93;9.38;;;;;;;;;;1028410;28;20493;-74
2024/02/04 02:33:45;;;;;;;7.15;6.55;;;;;;;;;;1029494;28;20029;-74
2024/02/04 02:34:16;;;;;;;16.80;8.68;;;;;;;;;;1029419;28;20027;-74
2024/02/04 02:34:47;;;;;;;5.60;5.00;;;;;;;;;;1028671;28;20510;-74
2024/02/04 02:35:18;;;;;;;21.75;9.70;;;;;;;;;;1025544;28;20027;-73
2024/02/04 02:35:51;;;;;;;5.63;5.22;;;;;;;;;;1029421;28;20058;-73
2024/02/04 02:36:22;;;;;;;8.15;7.30;;;;;;;;;;1029587;28;20018;-74
2024/02/04 02:36:56;;;;;;;20.92;7.10;;;;;;;;;;1029810;28;20090;-73
2024/02/04 02:37:33;;;;;;;9.25;6.90;;;;;;;;;;1032400;28;20058;-73
2024/02/04 02:38:22;;;;;;;19.40;9.25;;;;;;;;;;1033405;28;20065;-74
2024/02/04 02:38:56;;;;;;;12.32;6.85;;;;;;;;;;1033534;28;20498;-73
2024/02/04 02:39:47;;;;;;;21.63;8.02;;;;;;;;;;1032107;28;20026;-73
2024/02/04 02:40:23;;;;;;;9.45;5.70;;;;;;;;;;1032144;28;20026;-73
2024/02/04 02:40:57;;;;;;;22.88;8.30;;;;;;;;;;1033564;28;20037;-73
2024/02/04 02:41:29;;;;;;;14.10;8.52;;;;;;;;;;1032595;28;20553;-74
2024/02/04 02:42:01;;;;;;;7.82;7.25;;;;;;;;;;1029237;28;20061;-74
2024/02/04 02:42:32;;;;;;;31.75;10.68;;;;;;;;;;1029006;28;20050;-73
2024/02/04 02:43:03;;;;;;;5.60;4.88;;;;;;;;;;1028667;28;20023;-75
2024/02/04 02:43:34;;;;;;;10.20;9.00;;;;;;;;;;1029085;28;20025;-76
2024/02/04 02:44:05;;;;;;;12.90;7.55;;;;;;;;;;1029150;28;20105;-76
2024/02/04 02:44:36;;;;;;;11.18;10.23;;;;;;;;;;1028884;28;20045;-76
2024/02/04 02:45:07;;;;;;;14.10;12.60;;;;;;;;;;1029597;28;20126;-76
2024/02/04 02:45:41;;;;;;;24.40;6.80;;;;;;;;;;1029546;28;20566;-76
2024/02/04 02:46:11;;;;;;;9.27;5.75;;;;;;;;;;1029242;28;20390;-76
2024/02/04 02:46:42;;;;;;;24.98;7.85;;;;;;;;;;1033558;28;20030;-73
2024/02/04 02:47:14;;;;;;;7.22;5.55;;;;;;;;;;1033995;28;20029;-74
2024/02/04 02:47:44;;;;;;;7.00;6.35;;;;;;;;;;1033596;28;20496;-74
2024/02/04 02:48:15;;;;;;;2.58;2.42;;;;;;;;;;1034788;28;20033;-76
2024/02/04 02:48:46;;;;;;;17.33;8.00;;;;;;;;;;1033342;28;20026;-76
2024/02/04 02:49:16;;;;;;;9.07;4.10;;;;;;;;;;1033528;28;20062;-76
2024/02/04 02:49:47;;;;;;;16.73;7.00;;;;;;;;;;1029033;28;20121;-76
2024/02/04 02:50:17;;;;;;;8.85;7.00;;;;;;;;;;1029327;28;20364;-76
2024/02/04 02:50:48;;;;;;;7.40;6.68;;;;;;;;;;1029313;28;20541;-76
2024/02/04 02:51:18;;;;;;;16.08;6.53;;;;;;;;;;1028751;28;20046;-76
2024/02/04 02:51:49;;;;;;;8.90;5.80;;;;;;;;;;1034659;28;20084;-76
2024/02/04 02:52:19;;;;;;;10.45;5.22;;;;;;;;;;1029481;28;20093;-76
2024/02/04 02:52:50;;;;;;;6.45;3.72;;;;;;;;;;1030045;28;20026;-76
2024/02/04 02:53:20;;;;;;;4.18;3.88;;;;;;;;;;1030191;28;20019;-76
2024/02/04 02:53:51;;;;;;;12.85;6.43;;;;;;;;;;1030266;28;20454;-76
2024/02/04 02:54:21;;;;;;;6.75;5.28;;;;;;;;;;1034191;28;20061;-74
2024/02/04 02:54:52;;;;;;;9.63;6.28;;;;;;;;;;1034093;28;20444;-74
2024/02/04 02:55:22;;;;;;;7.95;5.03;;;;;;;;;;1029616;28;20475;-74
2024/02/04 02:55:52;;;;;;;6.70;6.05;;;;;;;;;;1029153;28;20546;-73
2024/02/04 02:56:23;;;;;;;6.47;3.88;;;;;;;;;;1030196;28;20470;-74
2024/02/04 02:56:53;;;;;;;6.35;5.55;;;;;;;;;;1030008;28;20031;-73
2024/02/04 02:57:24;;;;;;;4.40;4.10;;;;;;;;;;1029957;28;20026;-74
2024/02/04 02:57:54;;;;;;;16.25;11.13;;;;;;;;;;1030192;28;20050;-73
2024/02/04 02:58:25;;;;;;;10.20;7.07;;;;;;;;;;1030109;28;20387;-76
2024/02/04 02:58:55;;;;;;;13.68;8.93;;;;;;;;;;1029834;28;20085;-74
2024/02/04 02:59:25;;;;;;;6.55;6.05;;;;;;;;;;1029965;28;20027;-74
2024/02/04 02:59:56;;;;;;;5.70;5.30;;;;;;;;;;1034441;28;20026;-74
2024/02/04 03:00:26;;;;;;;8.07;5.43;;;;;;;;;;1034486;28;20026;-74
2024/02/04 03:00:57;;;;;;;5.07;4.45;;;;;;;;;;1034405;28;20489;-74
2024/02/04 03:01:27;;;;;;;5.95;5.38;;;;;;;;;;1034212;28;20069;-74
2024/02/04 03:01:58;;;;;;;4.93;4.50;;;;;;;;;;1034539;28;20046;-74
2024/02/04 03:02:28;;;;;;;6.90;6.43;;;;;;;;;;1034510;28;20030;-74
2024/02/04 03:02:59;;;;;;;9.55;6.90;;;;;;;;;;1030525;28;20077;-75
2024/02/04 03:03:29;;;;;;;8.60;7.75;;;;;;;;;;1027669;28;20027;-74
2024/02/04 03:04:00;;;;;;;9.55;3.72;;;;;;;;;;1027977;28;20022;-74
2024/02/04 03:04:30;;;;;;;5.78;5.18;;;;;;;;;;1028099;28;20058;-74
2024/02/04 03:05:01;;;;;;;19.25;6.40;;;;;;;;;;1025126;28;20061;-74
2024/02/04 03:05:31;;;;;;;8.70;7.65;;;;;;;;;;1029953;28;20050;-74
2024/02/04 03:06:02;;;;;;;4.82;4.53;;;;;;;;;;1028430;28;20032;-74
2024/02/04 03:06:32;;;;;;;4.93;4.63;;;;;;;;;;1025660;28;20023;-74